KDED/DED METAR and TAF weather

Enter ICAO airport designator
Station Type Date Time Source
KDED METAR 2021/04/13 22:55 UTC NOAA

KDED 132255Z AUTO 06008KT 10SM CLR 25/18 A3006 RMK AO2 T02510175


Station Type Date Time Source
KDED Decoded METAR 2021/04/13 22:55 UTC NOAA

Station name not available
Apr 13, 2021 - 06:55 PM EDT / 2021.04.13 2255 UTC
Wind: from the ENE (060 degrees) at 9 MPH (8 KT):0
Visibility: 10 mile(s):0
Sky conditions: clear
Temperature: 77.2 F (25.1 C)
Dew Point: 63.5 F (17.5 C)
Relative Humidity: 62%
Pressure (altimeter): 30.06 in. Hg (1017 hPa)
ob: KDED 132255Z AUTO 06008KT 10SM CLR 25/18 A3006 RMK AO2 T02510175
cycle: 23

Station Type Date Time Source
KDED TAF UTC NOAA

Error!

Example: see airport list